sensor_id;sensor_type;location;lat;lon;timestamp;P1;durP1;ratioP1;P2;durP2;ratioP2
39322;SDS011;25036;53.638;10.134;2022-11-15T00:00:25;22.47;;;17.57;;
39322;SDS011;25036;53.638;10.134;2022-11-15T00:01:25;19.50;;;15.98;;
39322;SDS011;25036;53.638;10.134;2022-11-15T00:02:26;20.90;;;16.53;;
39322;SDS011;25036;53.638;10.134;2022-11-15T00:03:26;19.70;;;16.40;;
39322;SDS011;25036;53.638;10.134;2022-11-15T00:04:27;21.38;;;16.38;;
39322;SDS011;25036;53.638;10.134;2022-11-15T00:05:27;21.97;;;16.13;;
39322;SDS011;25036;53.638;10.134;2022-11-15T00:06:27;20.63;;;16.63;;
39322;SDS011;25036;53.638;10.134;2022-11-15T00:07:27;20.80;;;16.03;;
39322;SDS011;25036;53.638;10.134;2022-11-15T00:08:31;22.47;;;16.27;;
39322;SDS011;25036;53.638;10.134;2022-11-15T00:09:31;19.88;;;16.00;;
39322;SDS011;25036;53.638;10.134;2022-11-15T00:10:31;19.87;;;16.43;;
39322;SDS011;25036;53.638;10.134;2022-11-15T00:11:32;20.23;;;16.37;;
39322;SDS011;25036;53.638;10.134;2022-11-15T00:12:32;20.45;;;16.25;;
39322;SDS011;25036;53.638;10.134;2022-11-15T00:13:32;20.30;;;16.35;;
39322;SDS011;25036;53.638;10.134;2022-11-15T00:14:32;20.73;;;16.83;;
39322;SDS011;25036;53.638;10.134;2022-11-15T00:15:35;22.13;;;16.87;;
39322;SDS011;25036;53.638;10.134;2022-11-15T00:16:36;18.52;;;16.00;;
39322;SDS011;25036;53.638;10.134;2022-11-15T00:17:36;21.55;;;16.95;;
39322;SDS011;25036;53.638;10.134;2022-11-15T00:18:37;20.67;;;15.53;;
39322;SDS011;25036;53.638;10.134;2022-11-15T00:19:37;21.10;;;16.30;;
39322;SDS011;25036;53.638;10.134;2022-11-15T00:20:37;20.70;;;16.03;;
39322;SDS011;25036;53.638;10.134;2022-11-15T00:21:38;20.85;;;16.75;;
39322;SDS011;25036;53.638;10.134;2022-11-15T00:22:38;20.13;;;15.50;;
39322;SDS011;25036;53.638;10.134;2022-11-15T00:23:38;22.50;;;16.65;;
39322;SDS011;25036;53.638;10.134;2022-11-15T00:24:38;20.33;;;16.60;;
39322;SDS011;25036;53.638;10.134;2022-11-15T00:25:38;22.07;;;16.20;;
39322;SDS011;25036;53.638;10.134;2022-11-15T00:26:39;21.83;;;16.35;;
39322;SDS011;25036;53.638;10.134;2022-11-15T00:27:39;20.10;;;16.10;;
39322;SDS011;25036;53.638;10.134;2022-11-15T00:28:39;19.35;;;15.57;;
39322;SDS011;25036;53.638;10.134;2022-11-15T00:29:40;20.52;;;16.02;;
39322;SDS011;25036;53.638;10.134;2022-11-15T00:30:43;21.70;;;16.88;;
39322;SDS011;25036;53.638;10.134;2022-11-15T00:31:43;20.23;;;16.73;;
39322;SDS011;25036;53.638;10.134;2022-11-15T00:32:43;21.00;;;15.73;;
39322;SDS011;25036;53.638;10.134;2022-11-15T00:33:43;20.87;;;16.77;;
39322;SDS011;25036;53.638;10.134;2022-11-15T00:34:44;18.63;;;15.77;;
39322;SDS011;25036;53.638;10.134;2022-11-15T00:35:44;18.40;;;16.20;;
39322;SDS011;25036;53.638;10.134;2022-11-15T00:36:44;19.73;;;16.80;;
39322;SDS011;25036;53.638;10.134;2022-11-15T00:37:44;20.27;;;16.17;;
39322;SDS011;25036;53.638;10.134;2022-11-15T00:38:46;19.75;;;15.48;;
39322;SDS011;25036;53.638;10.134;2022-11-15T00:39:46;20.23;;;16.03;;
39322;SDS011;25036;53.638;10.134;2022-11-15T00:40:46;21.27;;;16.80;;
39322;SDS011;25036;53.638;10.134;2022-11-15T00:41:46;19.43;;;15.47;;
39322;SDS011;25036;53.638;10.134;2022-11-15T00:42:47;21.08;;;16.20;;
39322;SDS011;25036;53.638;10.134;2022-11-15T00:43:47;21.80;;;16.38;;
39322;SDS011;25036;53.638;10.134;2022-11-15T00:44:47;18.92;;;15.63;;
39322;SDS011;25036;53.638;10.134;2022-11-15T00:45:47;20.70;;;16.20;;
39322;SDS011;25036;53.638;10.134;2022-11-15T00:46:47;22.33;;;16.17;;
39322;SDS011;25036;53.638;10.134;2022-11-15T00:47:47;20.77;;;15.40;;
39322;SDS011;25036;53.638;10.134;2022-11-15T00:48:47;19.17;;;15.83;;
39322;SDS011;25036;53.638;10.134;2022-11-15T00:49:48;20.13;;;16.10;;
39322;SDS011;25036;53.638;10.134;2022-11-15T00:50:48;18.87;;;15.30;;
39322;SDS011;25036;53.638;10.134;2022-11-15T00:51:48;19.25;;;15.90;;
39322;SDS011;25036;53.638;10.134;2022-11-15T00:52:49;23.30;;;15.65;;
39322;SDS011;25036;53.638;10.134;2022-11-15T00:53:49;22.00;;;15.67;;
39322;SDS011;25036;53.638;10.134;2022-11-15T00:54:49;19.67;;;16.20;;
39322;SDS011;25036;53.638;10.134;2022-11-15T00:55:49;20.50;;;15.87;;
39322;SDS011;25036;53.638;10.134;2022-11-15T00:56:49;20.77;;;15.60;;
39322;SDS011;25036;53.638;10.134;2022-11-15T00:57:49;20.60;;;16.50;;
39322;SDS011;25036;53.638;10.134;2022-11-15T00:58:49;19.97;;;15.67;;
39322;SDS011;25036;53.638;10.134;2022-11-15T00:59:49;20.17;;;15.80;;
39322;SDS011;25036;53.638;10.134;2022-11-15T01:00:50;21.00;;;15.93;;
39322;SDS011;25036;53.638;10.134;2022-11-15T01:01:50;20.50;;;16.17;;
39322;SDS011;25036;53.638;10.134;2022-11-15T01:02:50;19.87;;;15.87;;
39322;SDS011;25036;53.638;10.134;2022-11-15T01:03:50;21.23;;;16.40;;
39322;SDS011;25036;53.638;10.134;2022-11-15T01:04:50;22.53;;;16.50;;
39322;SDS011;25036;53.638;10.134;2022-11-15T01:05:50;22.40;;;16.80;;
39322;SDS011;25036;53.638;10.134;2022-11-15T01:06:50;22.47;;;16.00;;
39322;SDS011;25036;53.638;10.134;2022-11-15T01:07:51;17.57;;;15.27;;
39322;SDS011;25036;53.638;10.134;2022-11-15T01:08:51;19.00;;;15.40;;
39322;SDS011;25036;53.638;10.134;2022-11-15T01:09:51;19.37;;;15.87;;
39322;SDS011;25036;53.638;10.134;2022-11-15T01:10:52;18.83;;;16.00;;
39322;SDS011;25036;53.638;10.134;2022-11-15T01:11:52;24.83;;;17.30;;
39322;SDS011;25036;53.638;10.134;2022-11-15T01:12:52;20.85;;;15.77;;
39322;SDS011;25036;53.638;10.134;2022-11-15T01:13:52;19.67;;;15.50;;
39322;SDS011;25036;53.638;10.134;2022-11-15T01:14:52;20.00;;;15.17;;
39322;SDS011;25036;53.638;10.134;2022-11-15T01:15:52;19.93;;;15.97;;
39322;SDS011;25036;53.638;10.134;2022-11-15T01:16:53;21.50;;;15.97;;
39322;SDS011;25036;53.638;10.134;2022-11-15T01:17:53;18.70;;;15.53;;
39322;SDS011;25036;53.638;10.134;2022-11-15T01:18:53;19.73;;;15.97;;
39322;SDS011;25036;53.638;10.134;2022-11-15T01:19:53;20.42;;;16.02;;
39322;SDS011;25036;53.638;10.134;2022-11-15T01:20:53;21.70;;;15.63;;
39322;SDS011;25036;53.638;10.134;2022-11-15T01:21:53;18.75;;;14.77;;
39322;SDS011;25036;53.638;10.134;2022-11-15T01:22:53;19.20;;;15.67;;
39322;SDS011;25036;53.638;10.134;2022-11-15T01:23:54;19.87;;;15.67;;
39322;SDS011;25036;53.638;10.134;2022-11-15T01:24:55;19.13;;;15.13;;
39322;SDS011;25036;53.638;10.134;2022-11-15T01:25:58;19.73;;;15.55;;
39322;SDS011;25036;53.638;10.134;2022-11-15T01:26:58;20.30;;;14.93;;
39322;SDS011;25036;53.638;10.134;2022-11-15T01:27:58;17.07;;;14.73;;
39322;SDS011;25036;53.638;10.134;2022-11-15T01:28:58;18.57;;;14.10;;
39322;SDS011;25036;53.638;10.134;2022-11-15T01:29:58;19.93;;;15.03;;
39322;SDS011;25036;53.638;10.134;2022-11-15T01:30:59;17.10;;;14.87;;
39322;SDS011;25036;53.638;10.134;2022-11-15T01:31:59;19.35;;;15.35;;
39322;SDS011;25036;53.638;10.134;2022-11-15T01:33:00;19.17;;;14.95;;
39322;SDS011;25036;53.638;10.134;2022-11-15T01:34:00;19.70;;;15.73;;
39322;SDS011;25036;53.638;10.134;2022-11-15T01:35:00;20.10;;;15.87;;
39322;SDS011;25036;53.638;10.134;2022-11-15T01:36:03;19.53;;;15.63;;
39322;SDS011;25036;53.638;10.134;2022-11-15T01:37:03;18.80;;;16.15;;
39322;SDS011;25036;53.638;10.134;2022-11-15T01:38:03;21.97;;;17.67;;
39322;SDS011;25036;53.638;10.134;2022-11-15T01:39:04;19.00;;;16.27;;
39322;SDS011;25036;53.638;10.134;2022-11-15T01:40:04;20.50;;;16.67;;
39322;SDS011;25036;53.638;10.134;2022-11-15T01:41:04;20.30;;;16.20;;
39322;SDS011;25036;53.638;10.134;2022-11-15T01:42:04;18.75;;;15.80;;
39322;SDS011;25036;53.638;10.134;2022-11-15T01:45:35;18.33;;;15.23;;
39322;SDS011;25036;53.638;10.134;2022-11-15T01:46:36;18.45;;;15.52;;
39322;SDS011;25036;53.638;10.134;2022-11-15T01:47:38;18.88;;;16.33;;
39322;SDS011;25036;53.638;10.134;2022-11-15T01:48:39;19.45;;;16.55;;
39322;SDS011;25036;53.638;10.134;2022-11-15T01:49:40;18.73;;;16.40;;
39322;SDS011;25036;53.638;10.134;2022-11-15T01:50:42;19.23;;;16.10;;
39322;SDS011;25036;53.638;10.134;2022-11-15T01:51:42;19.37;;;16.37;;
39322;SDS011;25036;53.638;10.134;2022-11-15T01:52:42;18.58;;;15.55;;
39322;SDS011;25036;53.638;10.134;2022-11-15T01:53:43;18.92;;;15.25;;
39322;SDS011;25036;53.638;10.134;2022-11-15T01:54:44;18.27;;;16.38;;
39322;SDS011;25036;53.638;10.134;2022-11-15T01:55:44;17.85;;;16.05;;
39322;SDS011;25036;53.638;10.134;2022-11-15T01:56:46;18.07;;;15.73;;
39322;SDS011;25036;53.638;10.134;2022-11-15T01:57:49;18.40;;;15.13;;
39322;SDS011;25036;53.638;10.134;2022-11-15T01:58:50;19.55;;;16.98;;
39322;SDS011;25036;53.638;10.134;2022-11-15T01:59:51;17.85;;;15.95;;
39322;SDS011;25036;53.638;10.134;2022-11-15T02:00:51;17.92;;;15.75;;
39322;SDS011;25036;53.638;10.134;2022-11-15T02:01:52;18.38;;;16.38;;
39322;SDS011;25036;53.638;10.134;2022-11-15T02:02:52;18.08;;;15.85;;
39322;SDS011;25036;53.638;10.134;2022-11-15T02:03:55;18.38;;;16.27;;
39322;SDS011;25036;53.638;10.134;2022-11-15T02:04:57;17.67;;;15.63;;
39322;SDS011;25036;53.638;10.134;2022-11-15T02:05:57;17.37;;;14.20;;
39322;SDS011;25036;53.638;10.134;2022-11-15T02:06:58;17.35;;;14.50;;
39322;SDS011;25036;53.638;10.134;2022-11-15T02:07:59;18.27;;;15.00;;
39322;SDS011;25036;53.638;10.134;2022-11-15T02:08:59;18.02;;;14.40;;
39322;SDS011;25036;53.638;10.134;2022-11-15T02:10:02;16.55;;;13.68;;
39322;SDS011;25036;53.638;10.134;2022-11-15T02:11:04;18.05;;;14.85;;
39322;SDS011;25036;53.638;10.134;2022-11-15T02:12:05;16.13;;;13.88;;
39322;SDS011;25036;53.638;10.134;2022-11-15T02:13:07;15.95;;;14.18;;
39322;SDS011;25036;53.638;10.134;2022-11-15T02:14:07;18.73;;;14.30;;
39322;SDS011;25036;53.638;10.134;2022-11-15T02:15:08;16.85;;;13.95;;
39322;SDS011;25036;53.638;10.134;2022-11-15T02:16:13;18.08;;;14.60;;
39322;SDS011;25036;53.638;10.134;2022-11-15T02:18:36;16.45;;;13.63;;
39322;SDS011;25036;53.638;10.134;2022-11-15T02:20:43;16.40;;;14.63;;
39322;SDS011;25036;53.638;10.134;2022-11-15T02:23:11;17.40;;;15.43;;
39322;SDS011;25036;53.638;10.134;2022-11-15T02:28:05;19.25;;;15.38;;
39322;SDS011;25036;53.638;10.134;2022-11-15T02:36:44;18.05;;;14.57;;
39322;SDS011;25036;53.638;10.134;2022-11-15T02:41:15;17.10;;;14.50;;
39322;SDS011;25036;53.638;10.134;2022-11-15T02:42:18;16.85;;;14.63;;
39322;SDS011;25036;53.638;10.134;2022-11-15T02:43:43;15.88;;;14.15;;
39322;SDS011;25036;53.638;10.134;2022-11-15T02:44:58;19.13;;;14.23;;
39322;SDS011;25036;53.638;10.134;2022-11-15T02:46:05;16.02;;;14.23;;
39322;SDS011;25036;53.638;10.134;2022-11-15T02:47:07;17.20;;;14.27;;
39322;SDS011;25036;53.638;10.134;2022-11-15T02:48:12;18.23;;;14.82;;
39322;SDS011;25036;53.638;10.134;2022-11-15T02:49:13;16.40;;;13.80;;
39322;SDS011;25036;53.638;10.134;2022-11-15T02:50:16;16.17;;;13.55;;
39322;SDS011;25036;53.638;10.134;2022-11-15T02:51:16;16.35;;;13.85;;
39322;SDS011;25036;53.638;10.134;2022-11-15T02:52:17;15.40;;;13.45;;
39322;SDS011;25036;53.638;10.134;2022-11-15T02:53:18;16.95;;;13.18;;
39322;SDS011;25036;53.638;10.134;2022-11-15T02:54:20;16.03;;;13.60;;
39322;SDS011;25036;53.638;10.134;2022-11-15T02:55:32;17.00;;;14.25;;
39322;SDS011;25036;53.638;10.134;2022-11-15T02:56:32;16.02;;;13.30;;
39322;SDS011;25036;53.638;10.134;2022-11-15T03:01:04;16.70;;;12.83;;
39322;SDS011;25036;53.638;10.134;2022-11-15T03:06:40;15.40;;;12.70;;
39322;SDS011;25036;53.638;10.134;2022-11-15T03:11:08;16.73;;;13.45;;
39322;SDS011;25036;53.638;10.134;2022-11-15T03:12:33;15.98;;;12.82;;
39322;SDS011;25036;53.638;10.134;2022-11-15T03:14:30;15.33;;;11.70;;
39322;SDS011;25036;53.638;10.134;2022-11-15T03:15:36;16.55;;;12.75;;
39322;SDS011;25036;53.638;10.134;2022-11-15T03:16:38;13.95;;;11.88;;
39322;SDS011;25036;53.638;10.134;2022-11-15T03:18:00;15.07;;;12.43;;
39322;SDS011;25036;53.638;10.134;2022-11-15T03:20:05;16.25;;;13.00;;
39322;SDS011;25036;53.638;10.134;2022-11-15T03:21:07;17.08;;;12.73;;
39322;SDS011;25036;53.638;10.134;2022-11-15T03:22:08;15.30;;;12.23;;
39322;SDS011;25036;53.638;10.134;2022-11-15T03:23:10;13.43;;;11.32;;
39322;SDS011;25036;53.638;10.134;2022-11-15T03:24:10;16.60;;;12.98;;
39322;SDS011;25036;53.638;10.134;2022-11-15T03:25:13;14.90;;;12.00;;
39322;SDS011;25036;53.638;10.134;2022-11-15T03:26:16;15.27;;;12.48;;
39322;SDS011;25036;53.638;10.134;2022-11-15T03:27:17;14.70;;;12.60;;
39322;SDS011;25036;53.638;10.134;2022-11-15T03:28:21;14.45;;;12.40;;
39322;SDS011;25036;53.638;10.134;2022-11-15T03:29:24;14.38;;;12.15;;
39322;SDS011;25036;53.638;10.134;2022-11-15T03:30:26;13.93;;;11.63;;
39322;SDS011;25036;53.638;10.134;2022-11-15T03:31:28;14.90;;;12.02;;
39322;SDS011;25036;53.638;10.134;2022-11-15T03:32:55;14.95;;;12.52;;
39322;SDS011;25036;53.638;10.134;2022-11-15T03:33:55;14.77;;;12.60;;
39322;SDS011;25036;53.638;10.134;2022-11-15T03:36:03;14.15;;;12.23;;
39322;SDS011;25036;53.638;10.134;2022-11-15T03:37:03;13.30;;;11.85;;
39322;SDS011;25036;53.638;10.134;2022-11-15T03:39:23;15.95;;;12.07;;
39322;SDS011;25036;53.638;10.134;2022-11-15T03:40:46;14.10;;;11.32;;
39322;SDS011;25036;53.638;10.134;2022-11-15T03:41:48;13.95;;;11.35;;
39322;SDS011;25036;53.638;10.134;2022-11-15T03:42:56;15.20;;;12.68;;
39322;SDS011;25036;53.638;10.134;2022-11-15T03:44:02;14.30;;;12.18;;
39322;SDS011;25036;53.638;10.134;2022-11-15T03:46:08;14.30;;;11.73;;
39322;SDS011;25036;53.638;10.134;2022-11-15T03:47:21;13.88;;;11.65;;
39322;SDS011;25036;53.638;10.134;2022-11-15T03:48:24;13.90;;;11.77;;
39322;SDS011;25036;53.638;10.134;2022-11-15T03:49:27;16.90;;;11.88;;
39322;SDS011;25036;53.638;10.134;2022-11-15T03:50:28;14.43;;;12.93;;
39322;SDS011;25036;53.638;10.134;2022-11-15T03:51:29;13.95;;;12.30;;
39322;SDS011;25036;53.638;10.134;2022-11-15T03:52:30;16.95;;;12.50;;
39322;SDS011;25036;53.638;10.134;2022-11-15T03:53:31;14.52;;;12.18;;
39322;SDS011;25036;53.638;10.134;2022-11-15T03:54:32;15.40;;;12.80;;
39322;SDS011;25036;53.638;10.134;2022-11-15T03:55:32;13.82;;;11.90;;
39322;SDS011;25036;53.638;10.134;2022-11-15T03:56:33;14.25;;;11.95;;
39322;SDS011;25036;53.638;10.134;2022-11-15T03:57:33;13.00;;;11.13;;
39322;SDS011;25036;53.638;10.134;2022-11-15T03:58:33;15.87;;;11.50;;
39322;SDS011;25036;53.638;10.134;2022-11-15T03:59:33;14.13;;;12.00;;
39322;SDS011;25036;53.638;10.134;2022-11-15T04:00:33;14.27;;;12.70;;
39322;SDS011;25036;53.638;10.134;2022-11-15T04:01:33;13.23;;;11.40;;
39322;SDS011;25036;53.638;10.134;2022-11-15T04:02:33;14.13;;;11.80;;
39322;SDS011;25036;53.638;10.134;2022-11-15T04:03:34;13.53;;;10.93;;
39322;SDS011;25036;53.638;10.134;2022-11-15T04:04:34;14.87;;;11.43;;
39322;SDS011;25036;53.638;10.134;2022-11-15T04:05:34;14.40;;;12.50;;
39322;SDS011;25036;53.638;10.134;2022-11-15T04:06:34;16.47;;;12.70;;
39322;SDS011;25036;53.638;10.134;2022-11-15T04:07:34;15.20;;;13.35;;
39322;SDS011;25036;53.638;10.134;2022-11-15T04:08:35;14.65;;;12.40;;
39322;SDS011;25036;53.638;10.134;2022-11-15T04:09:35;14.27;;;12.43;;
39322;SDS011;25036;53.638;10.134;2022-11-15T04:10:55;13.32;;;11.93;;
39322;SDS011;25036;53.638;10.134;2022-11-15T04:11:55;13.90;;;12.43;;
39322;SDS011;25036;53.638;10.134;2022-11-15T04:12:55;14.10;;;12.20;;
39322;SDS011;25036;53.638;10.134;2022-11-15T04:13:55;15.10;;;12.97;;
39322;SDS011;25036;53.638;10.134;2022-11-15T04:14:56;13.63;;;12.33;;
39322;SDS011;25036;53.638;10.134;2022-11-15T04:16:08;14.02;;;12.32;;
39322;SDS011;25036;53.638;10.134;2022-11-15T04:17:09;13.73;;;12.25;;
39322;SDS011;25036;53.638;10.134;2022-11-15T04:18:09;14.63;;;12.20;;
39322;SDS011;25036;53.638;10.134;2022-11-15T04:19:09;14.93;;;12.40;;
39322;SDS011;25036;53.638;10.134;2022-11-15T04:20:29;13.05;;;11.48;;
39322;SDS011;25036;53.638;10.134;2022-11-15T04:21:48;14.05;;;11.18;;
39322;SDS011;25036;53.638;10.134;2022-11-15T04:23:10;13.25;;;11.13;;
39322;SDS011;25036;53.638;10.134;2022-11-15T04:24:30;13.68;;;12.02;;
39322;SDS011;25036;53.638;10.134;2022-11-15T04:25:30;12.97;;;10.67;;
39322;SDS011;25036;53.638;10.134;2022-11-15T04:26:30;15.90;;;11.67;;
39322;SDS011;25036;53.638;10.134;2022-11-15T04:27:30;13.73;;;10.57;;
39322;SDS011;25036;53.638;10.134;2022-11-15T04:28:30;12.93;;;11.17;;
39322;SDS011;25036;53.638;10.134;2022-11-15T04:29:31;14.57;;;11.45;;
39322;SDS011;25036;53.638;10.134;2022-11-15T04:30:34;13.48;;;10.38;;
39322;SDS011;25036;53.638;10.134;2022-11-15T04:31:34;14.87;;;11.10;;
39322;SDS011;25036;53.638;10.134;2022-11-15T04:32:34;13.93;;;11.20;;
39322;SDS011;25036;53.638;10.134;2022-11-15T04:33:34;14.40;;;11.70;;
39322;SDS011;25036;53.638;10.134;2022-11-15T04:34:34;13.37;;;11.10;;
39322;SDS011;25036;53.638;10.134;2022-11-15T04:35:35;14.73;;;11.18;;
39322;SDS011;25036;53.638;10.134;2022-11-15T04:36:35;14.25;;;11.90;;
39322;SDS011;25036;53.638;10.134;2022-11-15T04:37:54;13.13;;;11.18;;
39322;SDS011;25036;53.638;10.134;2022-11-15T04:38:55;14.07;;;10.85;;
39322;SDS011;25036;53.638;10.134;2022-11-15T04:39:55;13.38;;;11.50;;
39322;SDS011;25036;53.638;10.134;2022-11-15T04:40:55;14.47;;;11.13;;
39322;SDS011;25036;53.638;10.134;2022-11-15T04:41:55;13.40;;;11.37;;
39322;SDS011;25036;53.638;10.134;2022-11-15T04:42:55;14.53;;;11.57;;
39322;SDS011;25036;53.638;10.134;2022-11-15T04:43:56;13.38;;;11.60;;
39322;SDS011;25036;53.638;10.134;2022-11-15T04:44:56;12.50;;;11.03;;
39322;SDS011;25036;53.638;10.134;2022-11-15T04:45:56;13.67;;;11.37;;
39322;SDS011;25036;53.638;10.134;2022-11-15T04:46:56;12.73;;;10.43;;
39322;SDS011;25036;53.638;10.134;2022-11-15T04:47:56;14.00;;;10.87;;
39322;SDS011;25036;53.638;10.134;2022-11-15T04:48:57;13.47;;;11.40;;
39322;SDS011;25036;53.638;10.134;2022-11-15T04:49:57;12.53;;;11.17;;
39322;SDS011;25036;53.638;10.134;2022-11-15T04:50:57;15.00;;;11.10;;
39322;SDS011;25036;53.638;10.134;2022-11-15T04:51:57;13.73;;;11.90;;
39322;SDS011;25036;53.638;10.134;2022-11-15T04:52:57;12.68;;;11.32;;
39322;SDS011;25036;53.638;10.134;2022-11-15T04:53:57;13.43;;;10.83;;
39322;SDS011;25036;53.638;10.134;2022-11-15T04:54:57;12.57;;;11.05;;
39322;SDS011;25036;53.638;10.134;2022-11-15T04:55:58;12.97;;;11.57;;
39322;SDS011;25036;53.638;10.134;2022-11-15T04:56:58;13.00;;;11.07;;
39322;SDS011;25036;53.638;10.134;2022-11-15T04:57:59;12.20;;;10.68;;
39322;SDS011;25036;53.638;10.134;2022-11-15T04:58:59;13.25;;;11.18;;
39322;SDS011;25036;53.638;10.134;2022-11-15T04:59:59;13.43;;;11.20;;
39322;SDS011;25036;53.638;10.134;2022-11-15T05:01:06;12.43;;;10.60;;
39322;SDS011;25036;53.638;10.134;2022-11-15T05:02:07;13.10;;;10.32;;
39322;SDS011;25036;53.638;10.134;2022-11-15T05:03:08;12.27;;;10.83;;
39322;SDS011;25036;53.638;10.134;2022-11-15T05:04:27;13.27;;;10.75;;
39322;SDS011;25036;53.638;10.134;2022-11-15T05:05:27;13.07;;;10.60;;
39322;SDS011;25036;53.638;10.134;2022-11-15T05:06:27;14.02;;;11.15;;
39322;SDS011;25036;53.638;10.134;2022-11-15T05:07:27;13.03;;;10.87;;
39322;SDS011;25036;53.638;10.134;2022-11-15T05:08:27;12.90;;;10.90;;
39322;SDS011;25036;53.638;10.134;2022-11-15T05:09:27;13.77;;;10.97;;
39322;SDS011;25036;53.638;10.134;2022-11-15T05:10:28;12.25;;;10.43;;
39322;SDS011;25036;53.638;10.134;2022-11-15T05:11:28;14.90;;;11.32;;
39322;SDS011;25036;53.638;10.134;2022-11-15T05:12:28;11.70;;;10.37;;
39322;SDS011;25036;53.638;10.134;2022-11-15T05:13:28;12.80;;;11.20;;
39322;SDS011;25036;53.638;10.134;2022-11-15T05:14:28;14.03;;;11.47;;
39322;SDS011;25036;53.638;10.134;2022-11-15T05:15:29;13.98;;;11.80;;
39322;SDS011;25036;53.638;10.134;2022-11-15T05:16:29;14.37;;;11.17;;
39322;SDS011;25036;53.638;10.134;2022-11-15T05:17:29;13.40;;;11.37;;
39322;SDS011;25036;53.638;10.134;2022-11-15T05:18:29;12.43;;;11.10;;
39322;SDS011;25036;53.638;10.134;2022-11-15T05:19:29;12.50;;;11.13;;
39322;SDS011;25036;53.638;10.134;2022-11-15T05:20:29;14.00;;;11.73;;
39322;SDS011;25036;53.638;10.134;2022-11-15T05:21:30;12.67;;;10.67;;
39322;SDS011;25036;53.638;10.134;2022-11-15T05:22:30;13.90;;;10.93;;
39322;SDS011;25036;53.638;10.134;2022-11-15T05:23:30;14.10;;;11.20;;
39322;SDS011;25036;53.638;10.134;2022-11-15T05:24:30;13.97;;;11.10;;
39322;SDS011;25036;53.638;10.134;2022-11-15T05:25:30;13.60;;;11.13;;
39322;SDS011;25036;53.638;10.134;2022-11-15T05:26:30;14.63;;;12.13;;
39322;SDS011;25036;53.638;10.134;2022-11-15T05:27:31;13.80;;;11.30;;
39322;SDS011;25036;53.638;10.134;2022-11-15T05:28:31;13.75;;;12.02;;
39322;SDS011;25036;53.638;10.134;2022-11-15T05:29:31;13.95;;;11.40;;
39322;SDS011;25036;53.638;10.134;2022-11-15T05:30:32;13.77;;;11.88;;
39322;SDS011;25036;53.638;10.134;2022-11-15T05:31:32;14.20;;;12.30;;
39322;SDS011;25036;53.638;10.134;2022-11-15T05:32:32;14.20;;;11.37;;
39322;SDS011;25036;53.638;10.134;2022-11-15T05:33:32;14.68;;;12.15;;
39322;SDS011;25036;53.638;10.134;2022-11-15T05:34:33;13.50;;;11.60;;
39322;SDS011;25036;53.638;10.134;2022-11-15T05:35:40;14.17;;;11.50;;
39322;SDS011;25036;53.638;10.134;2022-11-15T05:36:42;13.32;;;11.50;;
39322;SDS011;25036;53.638;10.134;2022-11-15T05:37:42;14.68;;;11.43;;
39322;SDS011;25036;53.638;10.134;2022-11-15T05:38:42;12.38;;;11.07;;
39322;SDS011;25036;53.638;10.134;2022-11-15T05:39:43;14.93;;;12.52;;
39322;SDS011;25036;53.638;10.134;2022-11-15T05:40:43;12.63;;;11.07;;
39322;SDS011;25036;53.638;10.134;2022-11-15T05:42:43;14.73;;;11.20;;
39322;SDS011;25036;53.638;10.134;2022-11-15T05:43:44;13.55;;;11.38;;
39322;SDS011;25036;53.638;10.134;2022-11-15T05:44:46;17.00;;;11.30;;
39322;SDS011;25036;53.638;10.134;2022-11-15T05:45:47;13.52;;;11.25;;
39322;SDS011;25036;53.638;10.134;2022-11-15T05:46:48;14.00;;;12.10;;
39322;SDS011;25036;53.638;10.134;2022-11-15T05:47:49;13.50;;;10.93;;
39322;SDS011;25036;53.638;10.134;2022-11-15T05:48:50;15.73;;;12.13;;
39322;SDS011;25036;53.638;10.134;2022-11-15T05:49:51;14.35;;;11.48;;
39322;SDS011;25036;53.638;10.134;2022-11-15T05:50:52;13.00;;;10.95;;
39322;SDS011;25036;53.638;10.134;2022-11-15T05:51:53;14.20;;;11.57;;
39322;SDS011;25036;53.638;10.134;2022-11-15T05:52:54;13.50;;;11.65;;
39322;SDS011;25036;53.638;10.134;2022-11-15T05:53:55;12.88;;;11.25;;
39322;SDS011;25036;53.638;10.134;2022-11-15T05:54:56;14.02;;;10.93;;
39322;SDS011;25036;53.638;10.134;2022-11-15T05:55:57;13.43;;;11.98;;
39322;SDS011;25036;53.638;10.134;2022-11-15T05:56:58;11.32;;;10.10;;
39322;SDS011;25036;53.638;10.134;2022-11-15T05:57:58;12.52;;;11.20;;
39322;SDS011;25036;53.638;10.134;2022-11-15T05:58:58;14.60;;;11.95;;
39322;SDS011;25036;53.638;10.134;2022-11-15T05:59:58;14.10;;;10.68;;
39322;SDS011;25036;53.638;10.134;2022-11-15T06:00:59;16.33;;;12.07;;
39322;SDS011;25036;53.638;10.134;2022-11-15T06:01:59;14.48;;;12.45;;
39322;SDS011;25036;53.638;10.134;2022-11-15T06:02:59;16.03;;;12.87;;
39322;SDS011;25036;53.638;10.134;2022-11-15T06:03:59;13.82;;;11.55;;
39322;SDS011;25036;53.638;10.134;2022-11-15T06:04:59;15.43;;;12.20;;
39322;SDS011;25036;53.638;10.134;2022-11-15T06:06:00;13.35;;;11.25;;
39322;SDS011;25036;53.638;10.134;2022-11-15T06:07:00;14.23;;;11.52;;
39322;SDS011;25036;53.638;10.134;2022-11-15T06:08:00;13.27;;;11.70;;
39322;SDS011;25036;53.638;10.134;2022-11-15T06:09:00;13.63;;;11.10;;
39322;SDS011;25036;53.638;10.134;2022-11-15T06:10:00;15.37;;;11.23;;
39322;SDS011;25036;53.638;10.134;2022-11-15T06:11:04;14.40;;;11.48;;
39322;SDS011;25036;53.638;10.134;2022-11-15T06:12:05;14.55;;;11.88;;
39322;SDS011;25036;53.638;10.134;2022-11-15T06:13:05;12.77;;;11.25;;
39322;SDS011;25036;53.638;10.134;2022-11-15T06:14:05;13.60;;;11.90;;
39322;SDS011;25036;53.638;10.134;2022-11-15T06:15:05;13.97;;;11.87;;
39322;SDS011;25036;53.638;10.134;2022-11-15T06:16:06;13.75;;;11.40;;
39322;SDS011;25036;53.638;10.134;2022-11-15T06:17:06;14.68;;;12.00;;
39322;SDS011;25036;53.638;10.134;2022-11-15T06:18:06;13.90;;;11.45;;
39322;SDS011;25036;53.638;10.134;2022-11-15T06:19:06;13.33;;;11.17;;
39322;SDS011;25036;53.638;10.134;2022-11-15T06:20:07;14.10;;;11.93;;
39322;SDS011;25036;53.638;10.134;2022-11-15T06:21:07;13.80;;;11.48;;
39322;SDS011;25036;53.638;10.134;2022-11-15T06:22:07;12.80;;;11.03;;
39322;SDS011;25036;53.638;10.134;2022-11-15T06:23:09;12.77;;;11.05;;
39322;SDS011;25036;53.638;10.134;2022-11-15T06:24:09;14.15;;;10.75;;
39322;SDS011;25036;53.638;10.134;2022-11-15T06:25:09;13.93;;;11.30;;
39322;SDS011;25036;53.638;10.134;2022-11-15T06:26:09;14.37;;;11.70;;
39322;SDS011;25036;53.638;10.134;2022-11-15T06:27:10;13.30;;;11.10;;
39322;SDS011;25036;53.638;10.134;2022-11-15T06:28:10;13.55;;;11.13;;
39322;SDS011;25036;53.638;10.134;2022-11-15T06:29:10;12.30;;;10.30;;
39322;SDS011;25036;53.638;10.134;2022-11-15T06:30:11;13.17;;;10.83;;
39322;SDS011;25036;53.638;10.134;2022-11-15T06:31:11;14.83;;;10.97;;
39322;SDS011;25036;53.638;10.134;2022-11-15T06:32:11;12.88;;;10.40;;
39322;SDS011;25036;53.638;10.134;2022-11-15T06:33:11;13.37;;;11.20;;
39322;SDS011;25036;53.638;10.134;2022-11-15T06:34:11;15.02;;;11.82;;